Time;durP1;ratioP1;P1;durP2;ratioP2;P2;SDS_P1;SDS_P2;PMS_P1;PMS_P2;Temp;Humidity;BMP_temperature;BMP_pressure;BME280_temperature;BME280_humidity;BME280_pressure;Samples;Min_cycle;Max_cycle;Signal;HPM_P1;HPM_P2
2022/01/16 00:04:05;;;;;;;8.70;3.90;;;;;;;-1.54;89.02;98013.72;5091312;28;20052;-67
2022/01/16 00:04:45;;;;;;;8.70;3.67;;;;;;;-1.57;89.32;98006.00;5091372;28;20369;-67
2022/01/16 00:07:15;;;;;;;6.63;3.17;;;;;;;-1.57;89.81;98010.34;5091363;28;20039;-67
2022/01/16 00:09:42;;;;;;;8.90;3.37;;;;;;;-1.62;89.50;98007.84;5072012;28;20045;-67
2022/01/16 00:12:11;;;;;;;5.33;3.00;;;;;;;-1.61;89.99;98001.78;5071055;28;20079;-67
2022/01/16 00:14:38;;;;;;;12.13;4.07;;;;;;;-1.61;89.61;97998.38;5070648;28;20063;-66
2022/01/16 00:17:05;;;;;;;8.97;3.87;;;;;;;-1.61;89.83;97985.47;5071103;28;20037;-67
2022/01/16 00:19:32;;;;;;;5.70;2.83;;;;;;;-1.58;90.02;97978.53;5071055;28;20489;-67
2022/01/16 00:21:59;;;;;;;7.80;3.70;;;;;;;-1.58;90.00;97994.00;5070817;28;20044;-67
2022/01/16 00:24:28;;;;;;;9.20;3.73;;;;;;;-1.58;90.19;97988.84;5071181;28;20041;-67
2022/01/16 00:26:55;;;;;;;12.90;4.33;;;;;;;-1.58;90.51;97991.44;5070146;28;20107;-67
2022/01/16 00:29:21;;;;;;;14.40;4.67;;;;;;;-1.53;90.39;98002.50;5069237;28;20131;-67
2022/01/16 00:31:48;;;;;;;12.53;6.00;;;;;;;-1.59;90.62;97997.47;5071855;28;20049;-67
2022/01/16 00:34:15;;;;;;;11.13;3.57;;;;;;;-1.61;90.84;98006.94;5070927;28;20051;-67
2022/01/16 00:36:46;;;;;;;8.50;4.03;;;;;;;-1.60;91.51;98007.81;5078114;28;20040;-67
2022/01/16 00:39:13;;;;;;;14.57;3.40;;;;;;;-1.54;91.11;98010.25;5069435;28;20032;-67
2022/01/16 00:41:42;;;;;;;6.40;3.43;;;;;;;-1.60;91.91;98006.09;5069814;28;20036;-67
2022/01/16 00:44:09;;;;;;;9.63;3.60;;;;;;;-1.63;91.64;98011.28;5070124;28;20067;-67
2022/01/16 00:46:36;;;;;;;10.07;4.17;;;;;;;-1.61;91.59;98012.09;5071498;28;20485;-67
2022/01/16 00:49:04;;;;;;;12.23;4.27;;;;;;;-1.59;91.84;98015.53;5070527;28;20123;-67
2022/01/16 00:51:31;;;;;;;11.27;5.63;;;;;;;-1.61;92.20;98013.84;5070487;28;20056;-67
2022/01/16 00:53:59;;;;;;;10.60;4.90;;;;;;;-1.62;92.33;98023.31;5070388;28;20072;-67
2022/01/16 00:56:26;;;;;;;11.07;4.43;;;;;;;-1.64;92.58;98050.00;5070036;28;20127;-67
2022/01/16 00:58:54;;;;;;;11.67;4.27;;;;;;;-1.63;92.86;98020.75;5070441;28;20063;-68
2022/01/16 01:01:22;;;;;;;11.97;4.80;;;;;;;-1.67;93.10;97994.19;5078646;28;20080;-68
2022/01/16 01:03:49;;;;;;;16.43;4.27;;;;;;;-1.67;93.12;98012.22;5070284;28;20052;-68
2022/01/16 01:06:16;;;;;;;11.23;4.73;;;;;;;-1.65;93.75;98035.41;5068980;28;20086;-68
2022/01/16 01:08:43;;;;;;;9.10;4.93;;;;;;;-1.69;93.73;98003.66;5070314;28;20043;-68
2022/01/16 01:11:14;;;;;;;11.57;5.70;;;;;;;-1.68;93.91;98018.22;5069664;28;20080;-67
2022/01/16 01:14:14;;;;;;;8.00;4.87;;;;;;;-1.70;93.96;98019.13;5070628;28;20505;-67
2022/01/16 01:16:51;;;;;;;13.37;5.10;;;;;;;-1.67;94.50;98001.03;5070262;28;20052;-67
2022/01/16 01:19:20;;;;;;;19.23;6.30;;;;;;;-1.69;94.39;98010.53;5070119;28;20135;-67
2022/01/16 01:21:47;;;;;;;19.13;5.33;;;;;;;-1.71;94.63;98017.44;5071365;28;20090;-67
2022/01/16 01:24:14;;;;;;;12.67;5.57;;;;;;;-1.73;94.94;97989.09;5069230;28;20382;-66
2022/01/16 01:26:50;;;;;;;10.97;5.47;;;;;;;-1.76;94.85;97945.31;5068789;28;20033;-67
2022/01/16 01:29:19;;;;;;;15.17;6.50;;;;;;;-1.76;94.97;97952.22;5069724;28;20032;-67
2022/01/16 01:31:51;;;;;;;11.13;5.43;;;;;;;-1.81;95.50;97977.22;5070131;28;20052;-67
2022/01/16 01:34:19;;;;;;;12.40;5.33;;;;;;;-1.84;95.61;97943.72;5069858;28;20533;-66
2022/01/16 01:36:48;;;;;;;11.17;5.00;;;;;;;-1.83;95.54;97891.31;5070286;28;20393;-68
2022/01/16 01:39:17;;;;;;;15.60;5.10;;;;;;;-1.94;95.75;97868.28;5070311;28;20464;-67
2022/01/16 01:41:49;;;;;;;12.67;4.73;;;;;;;-1.88;95.55;97875.94;5069813;28;20064;-67
2022/01/16 01:52:32;;;;;;;13.40;5.57;;;;;;;-1.89;95.77;97935.25;5082353;28;20514;-67
2022/01/16 01:54:59;;;;;;;9.83;4.37;;;;;;;-1.89;96.12;97945.56;5069922;28;20203;-67
2022/01/16 01:57:26;;;;;;;11.73;5.73;;;;;;;-1.92;96.06;97950.75;5068251;28;20053;-67
2022/01/16 01:59:53;;;;;;;16.50;6.03;;;;;;;-1.89;96.46;97946.41;5069942;28;20071;-68
2022/01/16 02:02:24;;;;;;;15.50;6.27;;;;;;;-1.88;96.20;97960.13;5069741;28;20048;-67
2022/01/16 02:04:51;;;;;;;12.43;5.57;;;;;;;-1.92;96.39;97963.66;5069782;28;20040;-68
2022/01/16 02:07:18;;;;;;;10.43;5.20;;;;;;;-1.91;96.24;97981.66;5069400;28;20041;-67
2022/01/16 02:09:45;;;;;;;12.47;5.60;;;;;;;-1.93;96.44;97959.38;5069774;28;20437;-65
2022/01/16 02:12:13;;;;;;;19.30;6.17;;;;;;;-1.94;96.75;97940.47;5069703;28;20045;-66
2022/01/16 02:14:54;;;;;;;13.73;6.23;;;;;;;-1.94;96.55;97953.34;5088656;28;20085;-67
2022/01/16 02:28:36;;;;;;;13.53;5.87;;;;;;;-1.97;96.85;97970.59;5080773;28;20040;-67
2022/01/16 02:31:17;;;;;;;12.37;4.87;;;;;;;-1.99;96.79;97974.91;5086682;28;20075;-67
2022/01/16 02:36:35;;;;;;;16.13;6.63;;;;;;;-2.06;96.98;97984.50;5087149;28;20115;-65
2022/01/16 02:39:08;;;;;;;17.87;6.47;;;;;;;-2.08;96.71;97982.81;5089844;28;20116;-67
2022/01/16 02:41:35;;;;;;;9.75;4.85;;;;;;;-2.09;96.83;97989.69;5089523;28;20044;-66
2022/01/16 02:44:11;;;;;;;14.03;5.93;;;;;;;-2.09;97.07;98001.75;5089719;28;20044;-67
2022/01/16 02:46:39;;;;;;;18.63;6.60;;;;;;;-2.13;96.84;97990.59;5089229;28;20040;-67
2022/01/16 02:49:18;;;;;;;11.30;5.10;;;;;;;-2.12;96.79;97983.75;5089262;28;20036;-68
2022/01/16 02:51:45;;;;;;;11.00;5.53;;;;;;;-2.15;96.72;97997.53;5089883;28;20055;-67
2022/01/16 02:54:14;;;;;;;12.37;6.07;;;;;;;-2.15;97.00;97992.38;5093121;28;20051;-67
2022/01/16 02:56:41;;;;;;;11.53;6.03;;;;;;;-2.19;97.30;97998.41;5092955;28;20047;-66
2022/01/16 02:59:10;;;;;;;14.83;5.67;;;;;;;-2.19;97.21;97997.59;5092932;28;20040;-67
2022/01/16 03:01:38;;;;;;;14.07;6.77;;;;;;;-2.21;97.38;97995.03;5091865;28;20048;-67
2022/01/16 03:04:05;;;;;;;14.73;5.93;;;;;;;-2.23;97.91;97995.94;5092903;28;20040;-67
2022/01/16 03:06:32;;;;;;;20.47;5.97;;;;;;;-2.24;97.98;98000.22;5092889;28;20048;-67
2022/01/16 03:09:00;;;;;;;15.87;5.97;;;;;;;-2.23;98.34;97999.34;5092916;28;20852;-67
2022/01/16 03:11:34;;;;;;;16.27;6.20;;;;;;;-2.21;98.03;97995.03;5092827;28;20048;-67
2022/01/16 03:14:02;;;;;;;11.13;6.97;;;;;;;-2.21;98.42;98000.19;5092494;28;20043;-66
2022/01/16 03:16:29;;;;;;;16.40;5.53;;;;;;;-2.16;98.24;98000.94;5092230;28;20127;-67
2022/01/16 03:21:57;;;;;;;17.33;6.30;;;;;;;-2.15;98.36;98000.09;5083443;28;20046;-67
2022/01/16 03:24:26;;;;;;;;;;;;;;;-2.12;98.01;97989.72;5090668;28;20496;-67
2022/01/16 03:26:56;;;;;;;14.30;6.73;;;;;;;-2.16;98.22;97994.97;5092402;28;20010;-66
2022/01/16 03:29:23;;;;;;;16.27;6.23;;;;;;;-2.13;98.19;98006.06;5092403;28;20123;-67
2022/01/16 03:31:51;;;;;;;11.27;5.50;;;;;;;-2.12;97.97;97997.44;5092056;28;20497;-66
2022/01/16 03:34:19;;;;;;;14.33;5.83;;;;;;;-2.19;98.06;97992.44;5092362;28;20047;-67
2022/01/16 03:36:46;;;;;;;18.03;6.63;;;;;;;-2.23;98.33;98007.06;5083084;28;20051;-67
2022/01/16 03:39:13;;;;;;;14.33;6.80;;;;;;;-2.25;98.26;97996.78;5071650;28;20068;-67
2022/01/16 03:41:40;;;;;;;18.30;7.70;;;;;;;-2.24;98.57;98005.38;5071826;28;20128;-67
2022/01/16 03:44:09;;;;;;;13.43;5.67;;;;;;;-2.30;98.18;97995.16;5071344;28;20043;-66
2022/01/16 03:46:38;;;;;;;16.10;6.27;;;;;;;-2.27;98.30;97997.69;5070704;28;20040;-67
2022/01/16 03:49:08;;;;;;;14.30;6.03;;;;;;;-2.25;98.17;97988.22;5071926;28;20084;-67
2022/01/16 03:51:36;;;;;;;13.13;7.37;;;;;;;-2.24;98.35;97995.06;5071653;28;20033;-67
2022/01/16 03:54:04;;;;;;;13.93;5.47;;;;;;;-2.26;97.59;97976.22;5071592;28;20040;-66
2022/01/16 03:56:31;;;;;;;13.33;5.47;;;;;;;-2.33;98.18;97978.00;5071576;28;20063;-67
2022/01/16 03:58:59;;;;;;;15.30;5.77;;;;;;;-2.36;98.12;97979.78;5072327;28;20052;-66
2022/01/16 04:01:28;;;;;;;19.40;7.83;;;;;;;-2.41;98.17;97976.44;5072345;28;20048;-66
2022/01/16 04:03:56;;;;;;;17.37;6.83;;;;;;;-2.41;98.40;97974.69;5071512;28;20127;-68
2022/01/16 04:06:23;;;;;;;17.57;6.57;;;;;;;-2.41;98.47;97982.41;5070718;28;20745;-68
2022/01/16 04:08:52;;;;;;;13.83;6.33;;;;;;;-2.39;98.47;97979.81;5071665;28;20075;-67
2022/01/16 04:11:20;;;;;;;17.50;7.37;;;;;;;-2.34;98.13;97980.59;5088920;28;20036;-66
2022/01/16 04:13:51;;;;;;;14.50;5.90;;;;;;;-2.36;98.06;97984.94;5091194;28;20055;-67
2022/01/16 04:16:19;;;;;;;13.67;6.70;;;;;;;-2.33;98.09;97987.47;5089970;28;20111;-66
2022/01/16 04:18:51;;;;;;;14.13;5.80;;;;;;;-2.37;97.52;97985.81;5089946;28;20054;-68
2022/01/16 04:21:18;;;;;;;20.00;7.17;;;;;;;-2.34;97.61;97988.31;5091286;28;20039;-67
2022/01/16 04:23:46;;;;;;;14.30;5.20;;;;;;;-2.37;97.26;97988.41;5091186;28;20040;-67
2022/01/16 04:26:13;;;;;;;8.83;4.20;;;;;;;-2.38;97.32;97991.81;5091243;28;20056;-66
2022/01/16 04:28:41;;;;;;;14.73;5.43;;;;;;;-2.37;97.08;97988.41;5090795;28;20043;-67
2022/01/16 04:31:08;;;;;;;14.90;5.90;;;;;;;-2.37;97.14;98001.28;5092641;28;20485;-66
2022/01/16 04:33:35;;;;;;;19.23;6.33;;;;;;;-2.37;96.84;97994.38;5086337;28;20123;-66
2022/01/16 04:36:04;;;;;;;16.27;6.37;;;;;;;-2.40;96.71;97999.56;5070740;28;20048;-66
2022/01/16 04:38:33;;;;;;;12.43;4.93;;;;;;;-2.34;96.66;97989.19;5071172;28;20455;-65
2022/01/16 04:43:52;;;;;;;15.77;5.80;;;;;;;-2.33;96.69;97997.78;5069333;28;20048;-66
2022/01/16 04:46:22;;;;;;;12.77;4.87;;;;;;;-2.30;96.41;97990.03;5069909;28;20052;-67
2022/01/16 04:48:50;;;;;;;11.57;4.30;;;;;;;-2.27;95.95;97986.53;5072198;28;20064;-67
2022/01/16 04:51:19;;;;;;;12.03;5.17;;;;;;;-2.33;95.66;97995.22;5071143;28;20053;-66
2022/01/16 04:53:47;;;;;;;11.57;5.60;;;;;;;-2.39;95.19;97983.25;5070466;28;20040;-67
2022/01/16 04:56:14;;;;;;;8.23;4.07;;;;;;;-2.37;95.67;97973.78;5069283;28;20045;-67
2022/01/16 04:58:42;;;;;;;14.27;4.70;;;;;;;-2.36;95.49;97983.22;5070251;28;20051;-67
2022/01/16 05:01:10;;;;;;;10.20;5.33;;;;;;;-2.36;95.35;97990.09;5070431;28;20405;-67
2022/01/16 05:03:38;;;;;;;11.77;4.73;;;;;;;-2.39;95.25;97995.28;5087893;28;20562;-67
2022/01/16 05:06:07;;;;;;;13.33;4.83;;;;;;;-2.44;94.86;97984.19;5090771;28;20079;-67
2022/01/16 05:08:35;;;;;;;8.13;3.90;;;;;;;-2.42;94.86;97988.44;5090073;28;20070;-66
2022/01/16 05:11:04;;;;;;;13.70;4.67;;;;;;;-2.39;94.27;97988.41;5090764;28;20044;-68
2022/01/16 05:16:34;;;;;;;15.43;4.80;;;;;;;-2.44;94.08;97984.19;5091665;28;20726;-67
2022/01/16 05:16:35;;;;;;;13.00;5.00;;;;;;;-2.42;94.33;97983.31;5090908;28;20538;-67
2022/01/16 05:19:03;;;;;;;12.77;4.43;;;;;;;-2.43;94.23;97984.19;5089054;28;20036;-66
2022/01/16 05:21:31;;;;;;;8.67;4.20;;;;;;;-2.47;94.34;97976.50;5090093;28;20086;-66
2022/01/16 05:23:59;;;;;;;11.77;4.63;;;;;;;-2.49;94.14;97980.81;5089788;28;20397;-66
2022/01/16 05:26:28;;;;;;;11.53;4.73;;;;;;;-2.51;94.62;97977.44;5089208;28;20052;-66
2022/01/16 05:28:55;;;;;;;21.57;6.43;;;;;;;-2.49;94.51;97988.53;5084220;28;20044;-66
2022/01/16 05:31:22;;;;;;;14.07;4.67;;;;;;;-2.52;94.41;97975.75;5075736;28;20556;-66
2022/01/16 05:33:50;;;;;;;8.27;4.30;;;;;;;-2.57;94.46;97985.22;5086284;28;20159;-68
2022/01/16 05:36:19;;;;;;;13.23;5.00;;;;;;;-2.60;94.22;97987.84;5069898;28;20090;-68
2022/01/16 05:38:47;;;;;;;10.00;5.00;;;;;;;-2.63;94.87;97988.72;5069675;28;20087;-65
2022/01/16 05:41:18;;;;;;;12.23;4.00;;;;;;;-2.59;94.89;97982.66;5068928;28;20032;-66
2022/01/16 05:43:45;;;;;;;10.77;4.63;;;;;;;-2.63;94.70;97965.56;5069934;28;20072;-65
2022/01/16 05:46:13;;;;;;;13.63;4.57;;;;;;;-2.63;94.74;97980.19;5087416;28;20047;-66
2022/01/16 05:48:40;;;;;;;14.73;5.40;;;;;;;-2.62;94.31;97979.28;5089862;28;20070;-65
2022/01/16 05:51:08;;;;;;;17.87;4.70;;;;;;;-2.64;94.70;97973.31;5089628;28;20059;-65
2022/01/16 05:53:35;;;;;;;14.07;5.40;;;;;;;-2.63;94.75;97985.31;5088935;28;20515;-66
2022/01/16 05:56:03;;;;;;;11.23;5.00;;;;;;;-2.67;94.80;97976.78;5089990;28;20067;-65
2022/01/16 05:58:31;;;;;;;11.93;5.23;;;;;;;-2.67;95.00;97988.78;5089449;28;20129;-66
2022/01/16 06:00:58;;;;;;;15.00;4.23;;;;;;;-2.68;95.17;97992.25;5086067;28;20048;-65
2022/01/16 06:03:25;;;;;;;8.60;4.63;;;;;;;-2.56;95.61;97995.50;5089962;28;20123;-65
2022/01/16 06:05:52;;;;;;;10.50;5.03;;;;;;;-2.52;95.04;98002.31;5089598;28;20405;-66
2022/01/16 06:08:19;;;;;;;11.70;4.20;;;;;;;-2.48;94.77;98001.41;5089843;28;20028;-66
2022/01/16 06:10:46;;;;;;;8.97;4.87;;;;;;;-2.46;94.32;98001.38;5089870;28;20123;-65
2022/01/16 06:13:13;;;;;;;17.53;6.33;;;;;;;-2.45;94.70;98003.94;5089506;28;20370;-66
2022/01/16 06:15:41;;;;;;;9.90;4.33;;;;;;;-2.39;94.78;98000.44;5089762;28;20048;-66
2022/01/16 06:18:09;;;;;;;12.97;4.53;;;;;;;-2.48;94.55;98001.41;5089667;28;20473;-66
2022/01/16 06:20:36;;;;;;;8.60;4.00;;;;;;;-2.44;94.24;97997.09;5089464;28;20044;-66
2022/01/16 06:23:03;;;;;;;9.13;4.77;;;;;;;-2.44;94.19;97979.88;5080499;28;20128;-66
2022/01/16 06:25:30;;;;;;;11.50;4.40;;;;;;;-2.42;94.36;97997.91;5070956;28;20123;-65
2022/01/16 06:27:57;;;;;;;8.87;4.47;;;;;;;-2.35;93.86;98004.66;5074689;28;20454;-66
2022/01/16 06:30:24;;;;;;;16.27;6.03;;;;;;;-2.34;93.56;97999.50;5072989;28;20124;-66
2022/01/16 06:32:53;;;;;;;10.30;5.23;;;;;;;-2.34;94.07;98001.22;5073292;28;20562;-66
2022/01/16 06:35:20;;;;;;;11.43;5.43;;;;;;;-2.36;93.82;97990.97;5090664;28;20040;-66
2022/01/16 06:37:47;;;;;;;19.17;6.60;;;;;;;-2.35;93.68;98004.66;5091947;28;20094;-66
2022/01/16 06:40:15;;;;;;;17.47;5.33;;;;;;;-2.41;93.80;97986.75;5093114;28;20052;-66
2022/01/16 06:42:42;;;;;;;15.67;6.67;;;;;;;-2.37;94.12;97999.53;5093634;28;20389;-67
2022/01/16 06:45:11;;;;;;;13.77;6.03;;;;;;;-2.35;93.87;98002.97;5093125;28;20040;-66
2022/01/16 06:47:38;;;;;;;10.77;5.80;;;;;;;-2.40;93.90;98009.88;5092988;28;20408;-67
2022/01/16 06:50:09;;;;;;;13.97;5.70;;;;;;;-2.29;94.12;97999.44;5093229;28;20115;-66
2022/01/16 06:52:36;;;;;;;23.67;7.47;;;;;;;-2.25;93.83;98003.69;5093370;28;20064;-65
2022/01/16 06:55:03;;;;;;;17.27;5.73;;;;;;;-2.36;92.65;97998.69;5093346;28;20044;-67
2022/01/16 06:57:30;;;;;;;13.93;6.13;;;;;;;-2.43;93.46;97991.91;5094283;28;20044;-66
2022/01/16 06:59:57;;;;;;;11.23;5.90;;;;;;;-2.46;93.48;97988.50;5089461;28;20060;-66
2022/01/16 07:02:24;;;;;;;16.50;5.67;;;;;;;-2.45;93.02;97991.06;5076918;28;20101;-66
2022/01/16 07:04:51;;;;;;;20.27;5.87;;;;;;;-2.44;93.14;98003.06;5081750;28;20046;-67
2022/01/16 07:07:20;;;;;;;15.83;6.23;;;;;;;-2.39;93.02;98003.00;5078920;28;20611;-66
2022/01/16 07:09:47;;;;;;;16.23;6.53;;;;;;;-2.38;93.17;97999.56;5075437;28;20516;-67
2022/01/16 07:12:14;;;;;;;23.87;6.97;;;;;;;-2.41;92.65;98002.19;5072852;28;20040;-65
2022/01/16 07:14:43;;;;;;;20.67;6.47;;;;;;;-2.41;92.57;98020.22;5090288;28;20037;-66
2022/01/16 07:17:10;;;;;;;16.20;6.80;;;;;;;-2.32;92.72;98010.66;5082323;28;20039;-66
2022/01/16 07:19:37;;;;;;;13.27;5.83;;;;;;;-2.38;92.41;98013.28;5072224;28;20045;-65
2022/01/16 07:22:05;;;;;;;14.33;5.60;;;;;;;-2.32;92.01;98005.50;5072656;28;20119;-66
2022/01/16 07:24:33;;;;;;;17.53;6.97;;;;;;;-2.24;92.03;97997.63;5072068;28;20497;-66
2022/01/16 07:27:01;;;;;;;15.50;5.97;;;;;;;-2.27;91.67;98000.25;5072277;28;20524;-66
2022/01/16 07:29:28;;;;;;;14.40;5.70;;;;;;;-2.20;91.68;97991.56;5071710;28;20044;-68
2022/01/16 07:31:55;;;;;;;18.13;6.07;;;;;;;-2.31;91.58;98004.63;5072334;28;20048;-67
2022/01/16 07:34:22;;;;;;;15.20;6.40;;;;;;;-2.25;91.67;97994.19;5073349;28;20036;-66
2022/01/16 07:36:49;;;;;;;11.43;6.03;;;;;;;-2.08;91.38;97993.13;5071335;28;20056;-67
2022/01/16 07:39:16;;;;;;;17.97;6.97;;;;;;;-1.95;90.89;97992.91;5071888;28;20047;-59
2022/01/16 07:41:44;;;;;;;14.13;6.57;;;;;;;-1.91;90.48;97981.66;5071942;28;20055;-59
2022/01/16 07:44:11;;;;;;;12.63;6.83;;;;;;;-1.76;90.27;97991.72;5072309;28;20032;-59
2022/01/16 07:46:38;;;;;;;20.57;7.70;;;;;;;-1.67;90.06;97989.03;5071665;28;20127;-59
2022/01/16 07:49:05;;;;;;;17.70;7.10;;;;;;;-1.57;89.72;97994.88;5071764;28;20051;-60
2022/01/16 07:51:33;;;;;;;19.03;7.73;;;;;;;-1.56;89.26;97997.41;5070749;28;20048;-60
2022/01/16 07:54:00;;;;;;;17.80;6.90;;;;;;;-1.57;89.39;97984.56;5073351;28;20041;-61
2022/01/16 07:56:27;;;;;;;18.97;6.67;;;;;;;-1.68;88.89;97989.03;5092325;28;20040;-60
2022/01/16 07:58:56;;;;;;;18.00;6.93;;;;;;;-1.68;89.16;98000.19;5092241;28;20040;-60
2022/01/16 08:01:23;;;;;;;11.83;7.07;;;;;;;-1.59;89.02;97992.31;5091433;28;20111;-60
2022/01/16 08:03:52;;;;;;;20.20;9.07;;;;;;;-1.56;88.67;98002.59;5091174;28;20127;-60
2022/01/16 08:06:19;;;;;;;20.87;7.60;;;;;;;-1.47;88.62;97997.25;5078662;28;20044;-59
2022/01/16 08:08:46;;;;;;;18.80;8.33;;;;;;;-1.45;88.25;97987.78;5079635;28;20039;-60
2022/01/16 08:11:13;;;;;;;17.27;7.83;;;;;;;-1.58;88.34;97994.00;5079444;28;20050;-56
2022/01/16 08:13:40;;;;;;;16.37;8.00;;;;;;;-1.43;88.74;97996.31;5079857;28;20046;-60
2022/01/16 08:16:09;;;;;;;18.27;8.10;;;;;;;-1.51;88.26;97998.19;5080821;28;20052;-70
2022/01/16 08:18:36;;;;;;;21.87;8.30;;;;;;;-1.49;88.09;97983.50;5083740;28;20497;-65
2022/01/16 08:21:03;;;;;;;21.33;9.90;;;;;;;-1.42;88.52;98000.59;5079298;28;20048;-67
2022/01/16 08:23:30;;;;;;;20.70;8.47;;;;;;;-1.38;88.55;97996.25;5072741;28;20044;-67
2022/01/16 08:25:58;;;;;;;23.53;9.57;;;;;;;-1.31;88.32;97996.09;5076126;28;20505;-66
2022/01/16 08:28:25;;;;;;;22.17;9.90;;;;;;;-1.39;87.99;97999.72;5078895;28;20047;-65
2022/01/16 08:30:52;;;;;;;26.53;10.73;;;;;;;-1.40;89.12;98000.56;5076225;28;20139;-66
2022/01/16 08:33:21;;;;;;;23.73;10.13;;;;;;;-1.33;88.85;98000.44;5078324;28;20067;-65
2022/01/16 08:35:48;;;;;;;25.20;9.57;;;;;;;-1.24;88.96;97999.44;5077309;28;20139;-65
2022/01/16 08:38:15;;;;;;;23.53;12.00;;;;;;;-0.96;88.61;97998.88;5078950;28;20048;-66
2022/01/16 08:40:42;;;;;;;24.83;9.53;;;;;;;-0.80;87.71;97992.53;5074117;28;20041;-64
2022/01/16 08:43:09;;;;;;;23.30;11.13;;;;;;;-0.49;87.02;97991.03;5074239;28;20727;-64
2022/01/16 08:45:37;;;;;;;24.60;10.67;;;;;;;-0.42;86.10;97989.16;5076657;28;20036;-65
2022/01/16 08:48:05;;;;;;;26.10;9.77;;;;;;;-0.14;85.42;97985.09;5076285;28;20823;-64
2022/01/16 08:50:35;;;;;;;29.40;11.53;;;;;;;-0.19;84.58;97995.53;5077125;28;20041;-65
2022/01/16 08:53:02;;;;;;;27.73;10.87;;;;;;;-0.25;84.67;97993.06;5073369;28;20051;-66
2022/01/16 08:55:29;;;;;;;23.03;9.63;;;;;;;-0.28;84.37;97987.94;5077399;28;20040;-64
2022/01/16 08:57:59;;;;;;;23.03;10.20;;;;;;;-0.52;83.75;98000.56;5080635;28;20075;-64
2022/01/16 09:00:27;;;;;;;24.07;10.80;;;;;;;-0.62;84.25;97988.69;5079843;28;20032;-64
2022/01/16 09:02:54;;;;;;;29.80;11.63;;;;;;;-0.52;84.61;97992.81;5081168;28;20434;-65
2022/01/16 09:05:21;;;;;;;30.00;10.90;;;;;;;-0.41;84.16;97989.13;5079404;28;20044;-64
2022/01/16 09:07:50;;;;;;;22.80;9.30;;;;;;;-0.23;83.34;97985.28;5082004;28;20047;-67
2022/01/16 09:10:17;;;;;;;28.03;10.67;;;;;;;-0.08;82.93;97992.69;5080636;28;20477;-66
2022/01/16 09:12:44;;;;;;;29.80;11.03;;;;;;;0.06;82.29;97982.88;5078233;28;20704;-65
2022/01/16 09:15:12;;;;;;;23.40;10.73;;;;;;;0.38;81.05;97960.50;5082300;28;20137;-66
2022/01/16 09:17:40;;;;;;;27.27;10.33;;;;;;;0.47;81.30;97962.00;5082206;28;20064;-67
2022/01/16 09:20:08;;;;;;;36.93;16.30;;;;;;;0.51;80.24;97961.91;5079181;28;20044;-66
2022/01/16 09:22:39;;;;;;;21.87;9.33;;;;;;;0.32;80.38;97947.75;5076998;28;20484;-66
2022/01/16 09:25:11;;;;;;;22.40;10.97;;;;;;;0.13;80.48;97937.88;5079396;28;20060;-65
2022/01/16 09:27:39;;;;;;;24.60;10.17;;;;;;;0.31;80.60;97942.59;5085135;28;20504;-67
2022/01/16 09:30:08;;;;;;;23.07;9.87;;;;;;;0.38;80.71;97938.97;5081680;28;20505;-65
2022/01/16 09:32:36;;;;;;;24.70;10.23;;;;;;;0.48;79.89;97935.22;5082605;28;20042;-64
2022/01/16 09:35:05;;;;;;;26.67;11.30;;;;;;;0.83;80.01;97928.22;5080049;28;20120;-65
2022/01/16 09:37:32;;;;;;;29.07;12.40;;;;;;;1.06;78.03;97930.19;5072282;28;20056;-65
2022/01/16 09:40:00;;;;;;;25.73;10.10;;;;;;;0.85;78.66;97928.19;5083262;28;20044;-66
2022/01/16 09:42:29;;;;;;;29.93;12.13;;;;;;;0.81;78.51;97927.44;5081606;28;20052;-65
2022/01/16 09:44:56;;;;;;;25.60;10.83;;;;;;;0.97;78.46;97925.28;5081025;28;20406;-65
2022/01/16 09:47:26;;;;;;;29.40;11.23;;;;;;;1.15;79.12;97917.81;5075953;28;20047;-67
2022/01/16 09:49:54;;;;;;;19.80;9.80;;;;;;;1.48;78.16;97921.16;5087433;28;20512;-66
2022/01/16 09:52:23;;;;;;;25.17;10.87;;;;;;;1.33;77.50;97914.69;5076562;28;20041;-69
2022/01/16 09:54:50;;;;;;;23.33;11.23;;;;;;;1.25;75.08;97916.66;5077324;28;20560;-71
2022/01/16 09:57:18;;;;;;;23.00;11.17;;;;;;;1.50;75.26;97903.81;5083494;28;20522;-66
2022/01/16 09:59:50;;;;;;;31.40;11.83;;;;;;;1.40;74.62;97898.97;5081054;28;20569;-65
2022/01/16 10:02:17;;;;;;;26.40;11.97;;;;;;;0.92;75.41;97890.88;5085623;28;20536;-65
2022/01/16 10:04:45;;;;;;;28.80;12.40;;;;;;;1.15;75.77;97888.50;5089335;28;20097;-65
2022/01/16 10:07:14;;;;;;;26.50;10.97;;;;;;;1.27;75.16;97882.94;5083081;28;20443;-65
2022/01/16 10:09:44;;;;;;;32.40;12.90;;;;;;;1.06;75.59;97889.59;5073669;28;20110;-65
2022/01/16 10:12:16;;;;;;;26.63;12.10;;;;;;;0.98;75.60;97891.56;5085772;28;20098;-66
2022/01/16 10:14:49;;;;;;;28.80;11.60;;;;;;;0.66;76.50;97886.44;5083422;28;20044;-65
2022/01/16 10:17:19;;;;;;;27.38;11.18;;;;;;;0.84;76.86;97872.97;5079938;28;20484;-65
2022/01/16 10:19:57;;;;;;;24.23;11.60;;;;;;;0.54;76.81;97868.66;5076846;28;20036;-66
2022/01/16 10:22:24;;;;;;;30.10;12.27;;;;;;;0.48;77.50;97867.94;5089015;28;20040;-64
2022/01/16 10:24:55;;;;;;;32.43;11.37;;;;;;;0.42;76.81;97874.13;5079913;28;20719;-64
2022/01/16 10:27:22;;;;;;;32.43;12.73;;;;;;;0.27;77.59;97868.53;5084154;28;20461;-68
2022/01/16 10:29:51;;;;;;;29.77;10.73;;;;;;;0.02;78.18;97865.72;5081873;28;20041;-67
2022/01/16 10:32:23;;;;;;;31.57;11.20;;;;;;;-0.07;78.77;97868.53;5082592;28;20493;-64
2022/01/16 10:34:53;;;;;;;27.70;12.13;;;;;;;-0.08;79.10;97856.50;5083487;28;20127;-65
2022/01/16 10:37:23;;;;;;;27.83;13.50;;;;;;;-0.11;78.82;97856.56;5081044;28;20040;-69
2022/01/16 10:39:56;;;;;;;29.83;11.97;;;;;;;-0.07;79.58;97855.59;5082899;28;20067;-66
2022/01/16 10:42:23;;;;;;;32.05;14.32;;;;;;;0.08;80.17;97851.78;5084917;28;20568;-65
2022/01/16 10:44:57;;;;;;;31.67;12.87;;;;;;;0.23;79.17;97857.41;5091212;28;20048;-69
2022/01/16 10:47:31;;;;;;;36.97;12.87;;;;;;;0.07;78.74;97848.34;5087022;28;20131;-70
2022/01/16 10:50:06;;;;;;;29.10;12.90;;;;;;;-0.12;79.50;97844.53;5079927;28;20513;-71
2022/01/16 10:52:33;;;;;;;31.03;11.37;;;;;;;-0.14;80.29;97851.47;5084501;28;20119;-69
2022/01/16 10:55:08;;;;;;;31.43;12.87;;;;;;;-0.10;80.54;97836.75;5085152;28;20068;-70
2022/01/16 10:57:36;;;;;;;32.77;13.73;;;;;;;-0.03;79.90;97827.94;5083897;28;20040;-71
2022/01/16 11:00:12;;;;;;;32.03;12.70;;;;;;;0.44;79.96;97820.63;5083041;28;20099;-73
2022/01/16 11:02:43;;;;;;;35.10;12.33;;;;;;;0.44;79.36;97814.59;5082455;28;20082;-69
2022/01/16 11:05:13;;;;;;;31.57;13.70;;;;;;;0.32;79.92;97807.16;5074809;28;20048;-70
2022/01/16 11:07:41;;;;;;;29.30;13.63;;;;;;;0.11;79.80;97811.19;5086646;28;20105;-72
2022/01/16 11:10:24;;;;;;;36.43;14.00;;;;;;;-0.06;80.29;97804.75;5083801;28;20040;-69
2022/01/16 11:12:53;;;;;;;30.30;13.37;;;;;;;-0.02;80.01;97801.22;5074532;28;20045;-68
2022/01/16 11:15:21;;;;;;;32.83;13.33;;;;;;;-0.03;79.83;97783.97;5090999;28;20404;-69
2022/01/16 11:17:49;;;;;;;27.80;12.67;;;;;;;-0.17;79.77;97796.44;5089728;28;20130;-70
2022/01/16 11:20:18;;;;;;;28.47;10.80;;;;;;;-0.19;80.63;97786.13;5082157;28;20039;-70
2022/01/16 11:22:58;;;;;;;29.83;11.63;;;;;;;-0.18;80.40;97780.06;5087031;28;20040;-73
2022/01/16 11:25:33;;;;;;;22.57;9.30;;;;;;;-0.37;80.31;97775.41;5078926;28;20046;-71
2022/01/16 11:28:03;;;;;;;27.77;10.57;;;;;;;-0.27;80.57;97777.72;5088016;28;20055;-72
2022/01/16 11:30:34;;;;;;;31.67;11.57;;;;;;;-0.24;80.68;97779.38;5084220;28;20063;-70
2022/01/16 11:33:03;;;;;;;35.80;13.20;;;;;;;-0.28;81.30;97764.84;5082761;28;20068;-69
2022/01/16 11:35:32;;;;;;;24.07;11.00;;;;;;;-0.33;81.40;97762.38;5088883;28;20131;-68
2022/01/16 11:38:00;;;;;;;30.30;12.90;;;;;;;0.04;81.27;97767.41;5090428;28;20054;-68
2022/01/16 11:40:38;;;;;;;37.20;11.63;;;;;;;0.20;80.88;97761.78;5070378;28;20131;-67
2022/01/16 11:43:30;;;;;;;33.63;12.90;;;;;;;0.05;81.07;97762.19;5083654;28;20052;-67
2022/01/16 11:46:19;;;;;;;26.60;11.17;;;;;;;-0.05;81.31;97763.34;5088194;28;20083;-71
2022/01/16 11:48:53;;;;;;;26.03;11.60;;;;;;;-0.12;81.50;97761.81;5068961;28;20048;-70
2022/01/16 11:51:52;;;;;;;33.40;10.90;;;;;;;-0.15;81.81;97767.06;5070816;28;20075;-67
2022/01/16 11:54:27;;;;;;;24.37;11.57;;;;;;;-0.29;82.16;97758.81;5038143;28;20119;-69
2022/01/16 11:57:04;;;;;;;32.13;11.97;;;;;;;0.05;81.43;97757.03;5077933;28;20040;-69
2022/01/16 11:59:38;;;;;;;36.87;12.50;;;;;;;0.47;81.23;97757.56;5071279;28;20128;-69
2022/01/16 12:02:17;;;;;;;28.93;12.43;;;;;;;0.30;80.99;97752.00;5071309;28;20055;-67